sensor_id;sensor_type;location;lat;lon;timestamp;P1;durP1;ratioP1;P2;durP2;ratioP2
15327;SDS011;7764;51.430;6.840;2022-11-15T00:00:31;15.67;;;11.87;;
15327;SDS011;7764;51.430;6.840;2022-11-15T00:02:58;15.30;;;11.43;;
15327;SDS011;7764;51.430;6.840;2022-11-15T00:05:25;17.80;;;11.53;;
15327;SDS011;7764;51.430;6.840;2022-11-15T00:07:52;16.30;;;10.70;;
15327;SDS011;7764;51.430;6.840;2022-11-15T00:10:19;14.03;;;10.80;;
15327;SDS011;7764;51.430;6.840;2022-11-15T00:12:46;14.87;;;10.23;;
15327;SDS011;7764;51.430;6.840;2022-11-15T00:15:12;14.67;;;10.30;;
15327;SDS011;7764;51.430;6.840;2022-11-15T00:17:41;14.97;;;10.50;;
15327;SDS011;7764;51.430;6.840;2022-11-15T00:20:08;15.23;;;10.27;;
15327;SDS011;7764;51.430;6.840;2022-11-15T00:22:36;15.83;;;10.13;;
15327;SDS011;7764;51.430;6.840;2022-11-15T00:25:03;17.73;;;10.87;;
15327;SDS011;7764;51.430;6.840;2022-11-15T00:27:31;15.03;;;10.57;;
15327;SDS011;7764;51.430;6.840;2022-11-15T00:29:58;18.03;;;10.37;;
15327;SDS011;7764;51.430;6.840;2022-11-15T00:32:24;14.93;;;10.47;;
15327;SDS011;7764;51.430;6.840;2022-11-15T00:34:53;14.73;;;11.07;;
15327;SDS011;7764;51.430;6.840;2022-11-15T00:37:19;14.27;;;10.77;;
15327;SDS011;7764;51.430;6.840;2022-11-15T00:39:46;13.63;;;10.30;;
15327;SDS011;7764;51.430;6.840;2022-11-15T00:42:13;13.27;;;10.10;;
15327;SDS011;7764;51.430;6.840;2022-11-15T00:44:40;14.67;;;9.90;;
15327;SDS011;7764;51.430;6.840;2022-11-15T00:47:06;14.73;;;9.47;;
15327;SDS011;7764;51.430;6.840;2022-11-15T00:49:34;15.17;;;9.80;;
15327;SDS011;7764;51.430;6.840;2022-11-15T00:52:02;13.97;;;10.03;;
15327;SDS011;7764;51.430;6.840;2022-11-15T00:54:29;14.13;;;9.97;;
15327;SDS011;7764;51.430;6.840;2022-11-15T00:56:56;14.17;;;10.63;;
15327;SDS011;7764;51.430;6.840;2022-11-15T00:59:22;14.70;;;9.77;;
15327;SDS011;7764;51.430;6.840;2022-11-15T01:01:49;13.37;;;9.80;;
15327;SDS011;7764;51.430;6.840;2022-11-15T01:04:16;15.17;;;10.23;;
15327;SDS011;7764;51.430;6.840;2022-11-15T01:06:43;15.40;;;9.77;;
15327;SDS011;7764;51.430;6.840;2022-11-15T01:09:11;15.70;;;10.00;;
15327;SDS011;7764;51.430;6.840;2022-11-15T01:11:38;14.97;;;9.97;;
15327;SDS011;7764;51.430;6.840;2022-11-15T01:14:05;13.40;;;9.13;;
15327;SDS011;7764;51.430;6.840;2022-11-15T01:16:32;12.43;;;9.77;;
15327;SDS011;7764;51.430;6.840;2022-11-15T01:18:59;15.27;;;9.43;;
15327;SDS011;7764;51.430;6.840;2022-11-15T01:21:26;12.43;;;9.03;;
15327;SDS011;7764;51.430;6.840;2022-11-15T01:23:53;13.13;;;9.10;;
15327;SDS011;7764;51.430;6.840;2022-11-15T01:26:21;13.60;;;9.60;;
15327;SDS011;7764;51.430;6.840;2022-11-15T01:28:49;14.63;;;9.60;;
15327;SDS011;7764;51.430;6.840;2022-11-15T01:31:17;12.70;;;9.13;;
15327;SDS011;7764;51.430;6.840;2022-11-15T01:33:45;14.07;;;9.40;;
15327;SDS011;7764;51.430;6.840;2022-11-15T01:36:13;12.97;;;9.00;;
15327;SDS011;7764;51.430;6.840;2022-11-15T01:38:41;13.10;;;8.77;;
15327;SDS011;7764;51.430;6.840;2022-11-15T01:41:13;14.03;;;9.33;;
15327;SDS011;7764;51.430;6.840;2022-11-15T01:43:48;12.93;;;8.80;;
15327;SDS011;7764;51.430;6.840;2022-11-15T01:46:22;13.00;;;9.00;;
15327;SDS011;7764;51.430;6.840;2022-11-15T01:48:53;15.43;;;9.30;;
15327;SDS011;7764;51.430;6.840;2022-11-15T01:51:21;12.67;;;8.97;;
15327;SDS011;7764;51.430;6.840;2022-11-15T01:53:53;14.53;;;8.70;;
15327;SDS011;7764;51.430;6.840;2022-11-15T01:56:25;13.17;;;9.17;;
15327;SDS011;7764;51.430;6.840;2022-11-15T01:58:57;13.73;;;9.40;;
15327;SDS011;7764;51.430;6.840;2022-11-15T02:01:27;11.00;;;8.70;;
15327;SDS011;7764;51.430;6.840;2022-11-15T02:03:58;13.03;;;8.47;;
15327;SDS011;7764;51.430;6.840;2022-11-15T02:06:27;12.50;;;8.27;;
15327;SDS011;7764;51.430;6.840;2022-11-15T02:08:54;13.00;;;8.30;;
15327;SDS011;7764;51.430;6.840;2022-11-15T02:11:22;17.37;;;9.27;;
15327;SDS011;7764;51.430;6.840;2022-11-15T02:13:49;13.00;;;8.33;;
15327;SDS011;7764;51.430;6.840;2022-11-15T02:16:19;11.77;;;8.50;;
15327;SDS011;7764;51.430;6.840;2022-11-15T02:18:54;10.43;;;8.20;;
15327;SDS011;7764;51.430;6.840;2022-11-15T02:21:26;11.37;;;8.27;;
15327;SDS011;7764;51.430;6.840;2022-11-15T02:24:21;14.37;;;8.77;;
15327;SDS011;7764;51.430;6.840;2022-11-15T02:27:38;12.93;;;8.73;;
15327;SDS011;7764;51.430;6.840;2022-11-15T02:30:25;12.90;;;8.23;;
15327;SDS011;7764;51.430;6.840;2022-11-15T02:33:00;11.40;;;8.20;;
15327;SDS011;7764;51.430;6.840;2022-11-15T02:35:35;11.77;;;8.30;;
15327;SDS011;7764;51.430;6.840;2022-11-15T02:38:15;14.20;;;8.63;;
15327;SDS011;7764;51.430;6.840;2022-11-15T02:40:49;13.50;;;8.50;;
15327;SDS011;7764;51.430;6.840;2022-11-15T02:43:21;13.77;;;8.53;;
15327;SDS011;7764;51.430;6.840;2022-11-15T02:46:14;11.97;;;8.23;;
15327;SDS011;7764;51.430;6.840;2022-11-15T02:48:47;10.73;;;8.00;;
15327;SDS011;7764;51.430;6.840;2022-11-15T02:51:15;15.30;;;8.73;;
15327;SDS011;7764;51.430;6.840;2022-11-15T02:53:42;12.00;;;8.83;;
15327;SDS011;7764;51.430;6.840;2022-11-15T02:56:09;13.30;;;9.57;;
15327;SDS011;7764;51.430;6.840;2022-11-15T02:58:56;10.97;;;8.57;;
15327;SDS011;7764;51.430;6.840;2022-11-15T03:01:36;13.23;;;9.03;;
15327;SDS011;7764;51.430;6.840;2022-11-15T03:04:14;14.73;;;9.13;;
15327;SDS011;7764;51.430;6.840;2022-11-15T03:06:49;12.03;;;8.97;;
15327;SDS011;7764;51.430;6.840;2022-11-15T03:09:28;12.80;;;8.93;;
15327;SDS011;7764;51.430;6.840;2022-11-15T03:12:01;16.00;;;9.40;;
15327;SDS011;7764;51.430;6.840;2022-11-15T03:14:34;13.77;;;9.33;;
15327;SDS011;7764;51.430;6.840;2022-11-15T03:17:07;14.27;;;9.77;;
15327;SDS011;7764;51.430;6.840;2022-11-15T03:19:43;15.00;;;9.70;;
15327;SDS011;7764;51.430;6.840;2022-11-15T03:22:14;13.57;;;9.80;;
15327;SDS011;7764;51.430;6.840;2022-11-15T03:24:43;14.83;;;9.27;;
15327;SDS011;7764;51.430;6.840;2022-11-15T03:27:13;15.10;;;9.07;;
15327;SDS011;7764;51.430;6.840;2022-11-15T03:29:44;15.87;;;9.57;;
15327;SDS011;7764;51.430;6.840;2022-11-15T03:32:15;13.87;;;8.97;;
15327;SDS011;7764;51.430;6.840;2022-11-15T03:34:46;12.00;;;9.30;;
15327;SDS011;7764;51.430;6.840;2022-11-15T03:37:16;12.20;;;9.03;;
15327;SDS011;7764;51.430;6.840;2022-11-15T03:39:47;12.90;;;9.07;;
15327;SDS011;7764;51.430;6.840;2022-11-15T03:42:16;14.50;;;9.20;;
15327;SDS011;7764;51.430;6.840;2022-11-15T03:44:51;12.27;;;8.80;;
15327;SDS011;7764;51.430;6.840;2022-11-15T03:47:26;12.03;;;8.97;;
15327;SDS011;7764;51.430;6.840;2022-11-15T03:49:59;13.57;;;8.57;;
15327;SDS011;7764;51.430;6.840;2022-11-15T03:52:30;11.60;;;8.07;;
15327;SDS011;7764;51.430;6.840;2022-11-15T03:54:59;12.77;;;9.03;;
15327;SDS011;7764;51.430;6.840;2022-11-15T03:57:28;11.83;;;8.27;;
15327;SDS011;7764;51.430;6.840;2022-11-15T03:59:55;10.10;;;7.80;;
15327;SDS011;7764;51.430;6.840;2022-11-15T04:02:22;11.83;;;7.93;;
15327;SDS011;7764;51.430;6.840;2022-11-15T04:04:50;11.30;;;7.97;;
15327;SDS011;7764;51.430;6.840;2022-11-15T04:07:17;11.60;;;8.20;;
15327;SDS011;7764;51.430;6.840;2022-11-15T04:09:43;10.83;;;8.00;;
15327;SDS011;7764;51.430;6.840;2022-11-15T04:12:30;29.20;;;19.70;;
15327;SDS011;7764;51.430;6.840;2022-11-15T04:15:01;12.23;;;8.77;;
15327;SDS011;7764;51.430;6.840;2022-11-15T04:17:33;12.10;;;8.90;;
15327;SDS011;7764;51.430;6.840;2022-11-15T04:20:03;11.40;;;8.23;;
15327;SDS011;7764;51.430;6.840;2022-11-15T04:22:52;11.20;;;8.23;;
15327;SDS011;7764;51.430;6.840;2022-11-15T04:25:36;11.67;;;7.67;;
15327;SDS011;7764;51.430;6.840;2022-11-15T04:28:03;11.53;;;8.20;;
15327;SDS011;7764;51.430;6.840;2022-11-15T04:30:30;10.80;;;7.37;;
15327;SDS011;7764;51.430;6.840;2022-11-15T04:32:57;12.33;;;7.67;;
15327;SDS011;7764;51.430;6.840;2022-11-15T04:35:25;10.73;;;7.20;;
15327;SDS011;7764;51.430;6.840;2022-11-15T04:37:52;10.10;;;7.07;;
15327;SDS011;7764;51.430;6.840;2022-11-15T04:40:18;10.03;;;7.10;;
15327;SDS011;7764;51.430;6.840;2022-11-15T04:42:45;9.83;;;6.97;;
15327;SDS011;7764;51.430;6.840;2022-11-15T04:45:12;10.87;;;7.27;;
15327;SDS011;7764;51.430;6.840;2022-11-15T04:47:39;11.77;;;6.90;;
15327;SDS011;7764;51.430;6.840;2022-11-15T04:50:06;12.63;;;7.37;;
15327;SDS011;7764;51.430;6.840;2022-11-15T04:52:35;9.03;;;6.10;;
15327;SDS011;7764;51.430;6.840;2022-11-15T04:55:02;9.00;;;6.57;;
15327;SDS011;7764;51.430;6.840;2022-11-15T04:57:29;9.33;;;6.77;;
15327;SDS011;7764;51.430;6.840;2022-11-15T04:59:56;8.93;;;6.50;;
15327;SDS011;7764;51.430;6.840;2022-11-15T05:02:23;8.53;;;6.30;;
15327;SDS011;7764;51.430;6.840;2022-11-15T05:05:09;7.67;;;6.00;;
15327;SDS011;7764;51.430;6.840;2022-11-15T05:07:37;9.33;;;6.57;;
15327;SDS011;7764;51.430;6.840;2022-11-15T05:10:04;10.10;;;6.50;;
15327;SDS011;7764;51.430;6.840;2022-11-15T05:12:31;10.67;;;6.40;;
15327;SDS011;7764;51.430;6.840;2022-11-15T05:14:58;9.47;;;6.40;;
15327;SDS011;7764;51.430;6.840;2022-11-15T05:17:25;9.80;;;6.30;;
15327;SDS011;7764;51.430;6.840;2022-11-15T05:19:51;10.57;;;6.40;;
15327;SDS011;7764;51.430;6.840;2022-11-15T05:22:18;9.33;;;6.60;;
15327;SDS011;7764;51.430;6.840;2022-11-15T05:24:47;8.90;;;6.27;;
15327;SDS011;7764;51.430;6.840;2022-11-15T05:27:13;12.53;;;7.60;;
15327;SDS011;7764;51.430;6.840;2022-11-15T05:29:40;10.07;;;6.33;;
15327;SDS011;7764;51.430;6.840;2022-11-15T05:32:07;10.73;;;8.70;;
15327;SDS011;7764;51.430;6.840;2022-11-15T05:34:35;9.30;;;6.80;;
15327;SDS011;7764;51.430;6.840;2022-11-15T05:37:02;8.23;;;6.50;;
15327;SDS011;7764;51.430;6.840;2022-11-15T05:39:30;12.03;;;7.03;;
15327;SDS011;7764;51.430;6.840;2022-11-15T05:41:59;12.77;;;7.70;;
15327;SDS011;7764;51.430;6.840;2022-11-15T05:44:29;10.23;;;6.93;;
15327;SDS011;7764;51.430;6.840;2022-11-15T05:46:57;10.53;;;7.60;;
15327;SDS011;7764;51.430;6.840;2022-11-15T05:49:25;11.80;;;7.47;;
15327;SDS011;7764;51.430;6.840;2022-11-15T05:51:57;9.30;;;7.40;;
15327;SDS011;7764;51.430;6.840;2022-11-15T05:54:25;9.67;;;7.60;;
15327;SDS011;7764;51.430;6.840;2022-11-15T05:56:52;10.87;;;7.83;;
15327;SDS011;7764;51.430;6.840;2022-11-15T05:59:22;12.07;;;9.10;;
15327;SDS011;7764;51.430;6.840;2022-11-15T06:01:49;11.87;;;9.07;;
15327;SDS011;7764;51.430;6.840;2022-11-15T06:04:16;11.60;;;8.67;;
15327;SDS011;7764;51.430;6.840;2022-11-15T06:06:43;17.57;;;11.97;;
15327;SDS011;7764;51.430;6.840;2022-11-15T06:09:10;12.73;;;8.37;;
15327;SDS011;7764;51.430;6.840;2022-11-15T06:11:36;12.70;;;7.90;;
15327;SDS011;7764;51.430;6.840;2022-11-15T06:14:03;10.87;;;7.60;;
15327;SDS011;7764;51.430;6.840;2022-11-15T06:16:32;12.20;;;8.53;;
15327;SDS011;7764;51.430;6.840;2022-11-15T06:18:59;11.73;;;7.90;;
15327;SDS011;7764;51.430;6.840;2022-11-15T06:21:25;10.80;;;8.47;;
15327;SDS011;7764;51.430;6.840;2022-11-15T06:23:54;10.90;;;7.97;;
15327;SDS011;7764;51.430;6.840;2022-11-15T06:26:21;11.83;;;8.30;;
15327;SDS011;7764;51.430;6.840;2022-11-15T06:28:47;12.73;;;8.43;;
15327;SDS011;7764;51.430;6.840;2022-11-15T06:31:14;10.53;;;7.70;;
15327;SDS011;7764;51.430;6.840;2022-11-15T06:33:42;11.10;;;7.93;;
15327;SDS011;7764;51.430;6.840;2022-11-15T06:36:10;19.43;;;14.00;;
15327;SDS011;7764;51.430;6.840;2022-11-15T06:38:41;11.30;;;8.17;;
15327;SDS011;7764;51.430;6.840;2022-11-15T06:41:09;11.10;;;7.67;;
15327;SDS011;7764;51.430;6.840;2022-11-15T06:43:37;11.07;;;8.07;;
15327;SDS011;7764;51.430;6.840;2022-11-15T06:46:05;10.30;;;7.37;;
15327;SDS011;7764;51.430;6.840;2022-11-15T06:48:33;10.10;;;7.33;;
15327;SDS011;7764;51.430;6.840;2022-11-15T06:51:03;8.93;;;6.93;;
15327;SDS011;7764;51.430;6.840;2022-11-15T06:53:30;12.47;;;7.57;;
15327;SDS011;7764;51.430;6.840;2022-11-15T06:55:59;11.83;;;7.27;;
15327;SDS011;7764;51.430;6.840;2022-11-15T06:58:27;9.20;;;7.37;;
15327;SDS011;7764;51.430;6.840;2022-11-15T07:00:57;9.90;;;7.43;;
15327;SDS011;7764;51.430;6.840;2022-11-15T07:03:26;13.53;;;9.97;;
15327;SDS011;7764;51.430;6.840;2022-11-15T07:05:53;9.10;;;7.40;;
15327;SDS011;7764;51.430;6.840;2022-11-15T07:08:23;10.93;;;7.90;;
15327;SDS011;7764;51.430;6.840;2022-11-15T07:10:52;10.20;;;7.70;;
15327;SDS011;7764;51.430;6.840;2022-11-15T07:13:19;11.10;;;7.60;;
15327;SDS011;7764;51.430;6.840;2022-11-15T07:15:46;9.60;;;6.90;;
15327;SDS011;7764;51.430;6.840;2022-11-15T07:18:12;11.47;;;7.23;;
15327;SDS011;7764;51.430;6.840;2022-11-15T07:20:39;10.07;;;6.93;;
15327;SDS011;7764;51.430;6.840;2022-11-15T07:23:06;10.97;;;6.47;;
15327;SDS011;7764;51.430;6.840;2022-11-15T07:25:34;8.70;;;6.40;;
15327;SDS011;7764;51.430;6.840;2022-11-15T07:28:01;10.47;;;6.47;;
15327;SDS011;7764;51.430;6.840;2022-11-15T07:30:29;9.97;;;5.90;;
15327;SDS011;7764;51.430;6.840;2022-11-15T07:32:56;8.63;;;6.03;;
15327;SDS011;7764;51.430;6.840;2022-11-15T07:35:24;8.20;;;6.03;;
15327;SDS011;7764;51.430;6.840;2022-11-15T07:37:53;12.23;;;8.80;;
15327;SDS011;7764;51.430;6.840;2022-11-15T07:40:21;7.00;;;5.53;;
15327;SDS011;7764;51.430;6.840;2022-11-15T07:42:49;9.60;;;7.30;;
15327;SDS011;7764;51.430;6.840;2022-11-15T07:45:19;9.90;;;6.07;;
15327;SDS011;7764;51.430;6.840;2022-11-15T07:47:46;8.57;;;5.50;;
15327;SDS011;7764;51.430;6.840;2022-11-15T07:50:13;8.37;;;5.23;;
15327;SDS011;7764;51.430;6.840;2022-11-15T07:52:40;7.47;;;4.93;;
15327;SDS011;7764;51.430;6.840;2022-11-15T07:55:07;7.47;;;5.13;;
15327;SDS011;7764;51.430;6.840;2022-11-15T07:57:34;12.60;;;8.23;;
15327;SDS011;7764;51.430;6.840;2022-11-15T08:00:03;9.13;;;5.47;;
15327;SDS011;7764;51.430;6.840;2022-11-15T08:02:31;6.13;;;4.50;;
15327;SDS011;7764;51.430;6.840;2022-11-15T08:04:58;6.10;;;4.50;;
15327;SDS011;7764;51.430;6.840;2022-11-15T08:07:27;6.73;;;4.30;;
15327;SDS011;7764;51.430;6.840;2022-11-15T08:09:55;5.47;;;3.07;;
15327;SDS011;7764;51.430;6.840;2022-11-15T08:12:22;5.83;;;2.97;;
15327;SDS011;7764;51.430;6.840;2022-11-15T08:14:49;4.30;;;2.80;;
15327;SDS011;7764;51.430;6.840;2022-11-15T08:17:17;4.80;;;2.20;;
15327;SDS011;7764;51.430;6.840;2022-11-15T08:19:44;41.27;;;22.93;;
15327;SDS011;7764;51.430;6.840;2022-11-15T08:22:11;4.87;;;2.37;;
15327;SDS011;7764;51.430;6.840;2022-11-15T08:24:38;5.90;;;2.47;;
15327;SDS011;7764;51.430;6.840;2022-11-15T08:27:05;4.20;;;2.43;;
15327;SDS011;7764;51.430;6.840;2022-11-15T08:29:40;5.63;;;2.57;;
15327;SDS011;7764;51.430;6.840;2022-11-15T08:32:08;19.30;;;12.23;;
15327;SDS011;7764;51.430;6.840;2022-11-15T08:34:37;7.23;;;4.40;;
15327;SDS011;7764;51.430;6.840;2022-11-15T08:37:04;4.77;;;2.80;;
15327;SDS011;7764;51.430;6.840;2022-11-15T08:39:31;6.97;;;3.63;;
15327;SDS011;7764;51.430;6.840;2022-11-15T08:41:58;8.20;;;4.23;;
15327;SDS011;7764;51.430;6.840;2022-11-15T08:44:25;8.90;;;3.50;;
15327;SDS011;7764;51.430;6.840;2022-11-15T08:46:52;8.13;;;3.40;;
15327;SDS011;7764;51.430;6.840;2022-11-15T08:49:19;5.20;;;3.37;;
15327;SDS011;7764;51.430;6.840;2022-11-15T08:51:47;9.03;;;3.63;;
15327;SDS011;7764;51.430;6.840;2022-11-15T08:54:14;8.83;;;4.43;;
15327;SDS011;7764;51.430;6.840;2022-11-15T08:56:41;7.93;;;4.20;;
15327;SDS011;7764;51.430;6.840;2022-11-15T08:59:08;7.43;;;4.03;;
15327;SDS011;7764;51.430;6.840;2022-11-15T09:01:35;9.10;;;4.67;;
15327;SDS011;7764;51.430;6.840;2022-11-15T09:04:02;5.07;;;3.47;;
15327;SDS011;7764;51.430;6.840;2022-11-15T09:06:31;5.27;;;3.17;;
15327;SDS011;7764;51.430;6.840;2022-11-15T09:08:59;5.40;;;3.27;;
15327;SDS011;7764;51.430;6.840;2022-11-15T09:11:27;6.03;;;3.40;;
15327;SDS011;7764;51.430;6.840;2022-11-15T09:13:53;5.60;;;3.10;;
15327;SDS011;7764;51.430;6.840;2022-11-15T09:16:20;6.73;;;3.20;;
15327;SDS011;7764;51.430;6.840;2022-11-15T09:18:47;5.83;;;3.43;;
15327;SDS011;7764;51.430;6.840;2022-11-15T09:21:14;5.67;;;3.47;;
15327;SDS011;7764;51.430;6.840;2022-11-15T09:23:41;8.27;;;4.20;;
15327;SDS011;7764;51.430;6.840;2022-11-15T09:26:09;7.73;;;4.57;;
15327;SDS011;7764;51.430;6.840;2022-11-15T09:28:36;6.93;;;4.30;;
15327;SDS011;7764;51.430;6.840;2022-11-15T09:31:06;6.43;;;4.03;;
15327;SDS011;7764;51.430;6.840;2022-11-15T09:33:33;6.30;;;3.60;;
15327;SDS011;7764;51.430;6.840;2022-11-15T09:36:01;7.43;;;3.57;;
15327;SDS011;7764;51.430;6.840;2022-11-15T09:38:29;5.30;;;3.70;;
15327;SDS011;7764;51.430;6.840;2022-11-15T09:40:59;4.60;;;2.90;;
15327;SDS011;7764;51.430;6.840;2022-11-15T09:43:53;5.63;;;3.20;;
15327;SDS011;7764;51.430;6.840;2022-11-15T09:46:32;4.40;;;3.00;;
15327;SDS011;7764;51.430;6.840;2022-11-15T09:49:09;7.90;;;4.50;;
15327;SDS011;7764;51.430;6.840;2022-11-15T09:51:41;4.70;;;2.90;;
15327;SDS011;7764;51.430;6.840;2022-11-15T09:54:15;5.00;;;2.80;;
15327;SDS011;7764;51.430;6.840;2022-11-15T09:56:50;4.63;;;2.90;;
15327;SDS011;7764;51.430;6.840;2022-11-15T09:59:35;4.90;;;3.00;;
15327;SDS011;7764;51.430;6.840;2022-11-15T10:02:14;4.67;;;2.67;;
15327;SDS011;7764;51.430;6.840;2022-11-15T10:04:59;5.57;;;2.90;;
15327;SDS011;7764;51.430;6.840;2022-11-15T10:07:28;4.47;;;2.50;;
15327;SDS011;7764;51.430;6.840;2022-11-15T10:10:03;5.73;;;2.47;;
15327;SDS011;7764;51.430;6.840;2022-11-15T10:12:38;4.67;;;2.40;;
15327;SDS011;7764;51.430;6.840;2022-11-15T10:15:11;6.57;;;3.30;;
15327;SDS011;7764;51.430;6.840;2022-11-15T10:17:46;3.67;;;2.67;;
15327;SDS011;7764;51.430;6.840;2022-11-15T10:20:30;3.73;;;2.57;;
15327;SDS011;7764;51.430;6.840;2022-11-15T10:23:06;4.97;;;2.60;;
15327;SDS011;7764;51.430;6.840;2022-11-15T10:25:37;6.13;;;2.60;;
15327;SDS011;7764;51.430;6.840;2022-11-15T10:28:10;4.93;;;2.43;;
15327;SDS011;7764;51.430;6.840;2022-11-15T10:30:41;4.67;;;2.30;;
15327;SDS011;7764;51.430;6.840;2022-11-15T10:33:11;3.80;;;2.20;;
15327;SDS011;7764;51.430;6.840;2022-11-15T10:36:13;3.93;;;2.00;;
15327;SDS011;7764;51.430;6.840;2022-11-15T10:38:52;4.83;;;1.90;;
15327;SDS011;7764;51.430;6.840;2022-11-15T10:41:21;2.97;;;2.10;;
15327;SDS011;7764;51.430;6.840;2022-11-15T10:44:08;4.50;;;2.23;;
15327;SDS011;7764;51.430;6.840;2022-11-15T10:46:41;4.53;;;2.20;;
15327;SDS011;7764;51.430;6.840;2022-11-15T10:49:14;3.23;;;2.10;;
15327;SDS011;7764;51.430;6.840;2022-11-15T10:51:43;4.03;;;2.33;;
15327;SDS011;7764;51.430;6.840;2022-11-15T10:54:13;2.60;;;2.00;;
15327;SDS011;7764;51.430;6.840;2022-11-15T10:56:50;5.03;;;2.37;;
15327;SDS011;7764;51.430;6.840;2022-11-15T10:59:23;5.13;;;2.40;;
15327;SDS011;7764;51.430;6.840;2022-11-15T11:01:52;3.00;;;1.87;;
15327;SDS011;7764;51.430;6.840;2022-11-15T11:04:19;3.33;;;2.13;;
15327;SDS011;7764;51.430;6.840;2022-11-15T11:06:46;4.10;;;2.00;;
15327;SDS011;7764;51.430;6.840;2022-11-15T11:09:28;4.30;;;2.00;;
15327;SDS011;7764;51.430;6.840;2022-11-15T11:11:58;3.63;;;1.90;;
15327;SDS011;7764;51.430;6.840;2022-11-15T11:14:27;4.80;;;2.47;;
15327;SDS011;7764;51.430;6.840;2022-11-15T11:16:59;3.27;;;1.70;;
15327;SDS011;7764;51.430;6.840;2022-11-15T11:19:39;5.57;;;1.90;;
15327;SDS011;7764;51.430;6.840;2022-11-15T11:22:24;4.83;;;2.27;;
15327;SDS011;7764;51.430;6.840;2022-11-15T11:25:11;6.00;;;3.23;;
15327;SDS011;7764;51.430;6.840;2022-11-15T11:27:49;7.60;;;2.60;;
15327;SDS011;7764;51.430;6.840;2022-11-15T11:30:31;4.80;;;1.77;;
15327;SDS011;7764;51.430;6.840;2022-11-15T11:33:10;3.07;;;1.60;;
15327;SDS011;7764;51.430;6.840;2022-11-15T11:35:45;5.37;;;1.70;;
15327;SDS011;7764;51.430;6.840;2022-11-15T11:38:21;4.80;;;1.77;;
15327;SDS011;7764;51.430;6.840;2022-11-15T11:41:03;4.17;;;1.80;;
15327;SDS011;7764;51.430;6.840;2022-11-15T11:43:40;5.20;;;1.90;;
15327;SDS011;7764;51.430;6.840;2022-11-15T11:46:24;10.53;;;3.70;;
15327;SDS011;7764;51.430;6.840;2022-11-15T11:49:01;4.70;;;2.40;;
15327;SDS011;7764;51.430;6.840;2022-11-15T11:51:34;5.63;;;1.90;;
15327;SDS011;7764;51.430;6.840;2022-11-15T11:54:08;4.83;;;1.70;;
15327;SDS011;7764;51.430;6.840;2022-11-15T11:56:39;4.20;;;1.87;;
15327;SDS011;7764;51.430;6.840;2022-11-15T11:59:11;2.30;;;1.50;;
15327;SDS011;7764;51.430;6.840;2022-11-15T12:01:44;3.00;;;1.70;;
15327;SDS011;7764;51.430;6.840;2022-11-15T12:04:13;4.90;;;1.50;;
15327;SDS011;7764;51.430;6.840;2022-11-15T12:06:44;5.13;;;1.70;;
15327;SDS011;7764;51.430;6.840;2022-11-15T12:09:16;3.50;;;1.53;;
15327;SDS011;7764;51.430;6.840;2022-11-15T12:11:49;7.93;;;3.33;;
15327;SDS011;7764;51.430;6.840;2022-11-15T12:14:24;3.90;;;1.50;;
15327;SDS011;7764;51.430;6.840;2022-11-15T12:16:56;5.07;;;1.70;;
15327;SDS011;7764;51.430;6.840;2022-11-15T12:19:23;2.60;;;1.50;;
15327;SDS011;7764;51.430;6.840;2022-11-15T12:21:52;2.23;;;1.40;;
15327;SDS011;7764;51.430;6.840;2022-11-15T12:24:26;2.83;;;1.30;;
15327;SDS011;7764;51.430;6.840;2022-11-15T12:26:57;5.30;;;1.70;;
15327;SDS011;7764;51.430;6.840;2022-11-15T12:29:30;4.40;;;1.60;;
15327;SDS011;7764;51.430;6.840;2022-11-15T12:32:02;3.03;;;1.60;;
15327;SDS011;7764;51.430;6.840;2022-11-15T12:40:23;5.43;;;2.27;;
15327;SDS011;7764;51.430;6.840;2022-11-15T12:46:01;4.73;;;1.60;;
15327;SDS011;7764;51.430;6.840;2022-11-15T12:54:49;4.50;;;2.10;;
15327;SDS011;7764;51.430;6.840;2022-11-15T12:57:28;7.00;;;2.27;;
15327;SDS011;7764;51.430;6.840;2022-11-15T13:00:02;4.37;;;1.30;;
15327;SDS011;7764;51.430;6.840;2022-11-15T13:02:47;3.40;;;1.30;;
15327;SDS011;7764;51.430;6.840;2022-11-15T13:14:02;4.87;;;1.40;;
15327;SDS011;7764;51.430;6.840;2022-11-15T13:17:22;5.57;;;1.63;;
15327;SDS011;7764;51.430;6.840;2022-11-15T13:19:53;3.57;;;1.43;;
15327;SDS011;7764;51.430;6.840;2022-11-15T13:22:26;4.23;;;1.80;;
15327;SDS011;7764;51.430;6.840;2022-11-15T13:28:18;4.07;;;1.90;;
15327;SDS011;7764;51.430;6.840;2022-11-15T13:30:50;5.90;;;1.53;;
15327;SDS011;7764;51.430;6.840;2022-11-15T13:33:21;3.13;;;1.47;;
15327;SDS011;7764;51.430;6.840;2022-11-15T13:35:50;2.37;;;1.33;;
15327;SDS011;7764;51.430;6.840;2022-11-15T13:38:25;4.67;;;1.40;;
15327;SDS011;7764;51.430;6.840;2022-11-15T13:40:53;4.87;;;2.10;;
15327;SDS011;7764;51.430;6.840;2022-11-15T13:43:34;12.53;;;8.03;;
15327;SDS011;7764;51.430;6.840;2022-11-15T13:46:11;7.87;;;1.70;;
15327;SDS011;7764;51.430;6.840;2022-11-15T13:48:40;1.80;;;1.20;;
15327;SDS011;7764;51.430;6.840;2022-11-15T13:51:08;5.80;;;1.67;;
15327;SDS011;7764;51.430;6.840;2022-11-15T13:53:42;2.50;;;1.40;;
15327;SDS011;7764;51.430;6.840;2022-11-15T13:56:14;3.27;;;1.60;;
15327;SDS011;7764;51.430;6.840;2022-11-15T13:58:43;5.33;;;1.70;;
15327;SDS011;7764;51.430;6.840;2022-11-15T14:01:14;3.90;;;1.80;;
15327;SDS011;7764;51.430;6.840;2022-11-15T14:03:49;4.27;;;1.80;;
15327;SDS011;7764;51.430;6.840;2022-11-15T14:06:19;4.43;;;1.80;;
15327;SDS011;7764;51.430;6.840;2022-11-15T14:11:58;4.27;;;2.07;;
15327;SDS011;7764;51.430;6.840;2022-11-15T14:14:26;4.50;;;1.90;;
15327;SDS011;7764;51.430;6.840;2022-11-15T14:16:55;4.07;;;1.70;;
15327;SDS011;7764;51.430;6.840;2022-11-15T14:22:11;3.40;;;1.70;;
15327;SDS011;7764;51.430;6.840;2022-11-15T14:24:47;4.90;;;2.00;;
15327;SDS011;7764;51.430;6.840;2022-11-15T14:27:39;4.73;;;1.80;;
15327;SDS011;7764;51.430;6.840;2022-11-15T14:30:12;14.57;;;8.53;;
15327;SDS011;7764;51.430;6.840;2022-11-15T14:32:42;4.80;;;2.50;;
15327;SDS011;7764;51.430;6.840;2022-11-15T14:35:13;7.47;;;2.70;;
15327;SDS011;7764;51.430;6.840;2022-11-15T14:37:42;6.17;;;2.20;;
15327;SDS011;7764;51.430;6.840;2022-11-15T14:40:13;4.17;;;2.20;;
15327;SDS011;7764;51.430;6.840;2022-11-15T14:42:42;5.00;;;2.40;;
15327;SDS011;7764;51.430;6.840;2022-11-15T14:45:11;7.97;;;2.60;;
15327;SDS011;7764;51.430;6.840;2022-11-15T14:47:40;7.67;;;3.90;;
15327;SDS011;7764;51.430;6.840;2022-11-15T14:50:10;6.87;;;2.23;;
15327;SDS011;7764;51.430;6.840;2022-11-15T14:52:38;7.20;;;2.60;;
15327;SDS011;7764;51.430;6.840;2022-11-15T14:55:11;7.47;;;2.43;;
15327;SDS011;7764;51.430;6.840;2022-11-15T14:57:51;4.87;;;2.53;;
15327;SDS011;7764;51.430;6.840;2022-11-15T15:00:18;5.33;;;2.73;;
15327;SDS011;7764;51.430;6.840;2022-11-15T15:02:46;5.60;;;2.50;;
15327;SDS011;7764;51.430;6.840;2022-11-15T15:05:15;4.40;;;2.17;;
15327;SDS011;7764;51.430;6.840;2022-11-15T15:07:43;7.20;;;3.67;;
15327;SDS011;7764;51.430;6.840;2022-11-15T15:10:11;5.70;;;2.80;;
15327;SDS011;7764;51.430;6.840;2022-11-15T15:12:39;5.77;;;2.70;;
15327;SDS011;7764;51.430;6.840;2022-11-15T15:15:09;5.53;;;2.47;;
15327;SDS011;7764;51.430;6.840;2022-11-15T15:17:40;6.93;;;2.73;;
15327;SDS011;7764;51.430;6.840;2022-11-15T15:20:07;5.50;;;2.83;;
15327;SDS011;7764;51.430;6.840;2022-11-15T15:22:34;5.00;;;2.80;;
15327;SDS011;7764;51.430;6.840;2022-11-15T15:25:01;5.00;;;2.87;;
15327;SDS011;7764;51.430;6.840;2022-11-15T15:27:29;6.20;;;2.87;;
15327;SDS011;7764;51.430;6.840;2022-11-15T15:29:57;6.90;;;3.67;;
15327;SDS011;7764;51.430;6.840;2022-11-15T15:32:24;7.00;;;4.43;;
15327;SDS011;7764;51.430;6.840;2022-11-15T15:34:51;6.93;;;3.90;;
15327;SDS011;7764;51.430;6.840;2022-11-15T15:37:22;6.93;;;3.80;;
15327;SDS011;7764;51.430;6.840;2022-11-15T15:39:50;6.47;;;3.67;;
15327;SDS011;7764;51.430;6.840;2022-11-15T15:42:18;5.90;;;3.20;;
15327;SDS011;7764;51.430;6.840;2022-11-15T15:44:45;5.03;;;3.00;;
15327;SDS011;7764;51.430;6.840;2022-11-15T15:47:15;4.87;;;3.07;;